createdAt,value
2022-12-04T00:00:32.034Z,67.38
2022-12-04T00:02:58.857Z,67.48
2022-12-04T00:05:25.611Z,67.89
2022-12-04T00:07:52.764Z,67.93
2022-12-04T00:10:19.563Z,68.24
2022-12-04T00:12:46.258Z,68.35
2022-12-04T00:15:28.269Z,68.05
2022-12-04T00:17:55.632Z,68.31
2022-12-04T00:20:23.737Z,67.90
2022-12-04T00:22:50.539Z,67.61
2022-12-04T00:25:17.390Z,67.62
2022-12-04T00:27:44.279Z,67.64
2022-12-04T00:30:11.454Z,67.50
2022-12-04T00:32:38.159Z,67.49
2022-12-04T00:35:05.451Z,67.00
2022-12-04T00:37:33.482Z,66.69
2022-12-04T00:40:00.211Z,66.57
2022-12-04T00:42:28.357Z,66.70
2022-12-04T00:44:55.144Z,66.80
2022-12-04T00:47:21.920Z,66.70
2022-12-04T00:49:48.716Z,66.83
2022-12-04T00:52:15.771Z,67.10
2022-12-04T00:54:42.512Z,66.98
2022-12-04T00:57:09.439Z,66.84
2022-12-04T00:59:38.230Z,66.54
2022-12-04T01:02:05.164Z,66.30
2022-12-04T01:04:32.118Z,66.29
2022-12-04T01:07:04.670Z,66.03
2022-12-04T01:09:32.962Z,66.33
2022-12-04T01:11:59.668Z,66.18
2022-12-04T01:14:26.379Z,66.38
2022-12-04T01:16:53.321Z,66.32
2022-12-04T01:19:20.311Z,66.25
2022-12-04T01:21:47.023Z,66.12
2022-12-04T01:24:14.110Z,66.19
2022-12-04T01:26:40.869Z,66.27
2022-12-04T01:29:07.579Z,66.15
2022-12-04T01:31:34.898Z,66.05
2022-12-04T01:34:01.676Z,65.74
2022-12-04T01:36:29.063Z,65.61
2022-12-04T01:38:56.760Z,65.39
2022-12-04T01:41:26.825Z,65.67
2022-12-04T01:44:36.332Z,65.85
2022-12-04T01:47:03.022Z,66.40
2022-12-04T01:49:45.262Z,66.37
2022-12-04T01:52:16.431Z,66.31
2022-12-04T01:54:47.712Z,66.40
2022-12-04T01:57:16.426Z,66.37
2022-12-04T01:59:49.156Z,66.26
2022-12-04T02:02:19.522Z,66.16
2022-12-04T02:04:46.883Z,65.99
2022-12-04T02:07:13.676Z,66.00
2022-12-04T02:09:42.411Z,65.89
2022-12-04T02:12:16.161Z,65.75
2022-12-04T02:15:05.992Z,65.81
2022-12-04T02:18:08.078Z,65.94
2022-12-04T02:20:40.831Z,65.84
2022-12-04T02:23:37.322Z,65.88
2022-12-04T02:26:31.917Z,65.72
2022-12-04T02:29:20.544Z,65.82
2022-12-04T02:32:04.825Z,65.68
2022-12-04T02:34:48.232Z,65.81
2022-12-04T02:37:21.146Z,65.85
2022-12-04T02:40:03.741Z,66.13
2022-12-04T02:42:43.448Z,65.96
2022-12-04T02:45:15.059Z,65.94
2022-12-04T02:47:44.423Z,65.64
2022-12-04T02:50:18.218Z,65.27
2022-12-04T02:52:53.432Z,65.25
2022-12-04T02:55:28.608Z,65.21
2022-12-04T02:58:01.302Z,64.79
2022-12-04T03:00:30.615Z,65.20
2022-12-04T03:03:06.058Z,65.30
2022-12-04T03:05:41.744Z,65.01
2022-12-04T03:08:17.487Z,65.06
2022-12-04T03:10:50.719Z,65.13
2022-12-04T03:13:29.728Z,65.34
2022-12-04T03:16:06.332Z,65.87
2022-12-04T03:18:40.151Z,65.73
2022-12-04T03:21:20.109Z,65.67
2022-12-04T03:23:52.474Z,65.49
2022-12-04T03:26:21.960Z,65.43
2022-12-04T03:28:54.532Z,65.36
2022-12-04T03:31:32.381Z,65.40
2022-12-04T03:34:05.695Z,65.21
2022-12-04T03:36:41.675Z,65.50
2022-12-04T03:39:31.720Z,65.50
2022-12-04T03:42:20.552Z,65.81
2022-12-04T03:45:08.969Z,65.74
2022-12-04T03:47:57.256Z,65.41
2022-12-04T03:50:42.318Z,65.50
2022-12-04T03:53:17.885Z,65.75
2022-12-04T03:55:56.408Z,65.48
2022-12-04T03:58:29.697Z,65.17
2022-12-04T04:00:58.314Z,65.24
2022-12-04T04:03:33.460Z,64.90
2022-12-04T04:06:06.243Z,64.72
2022-12-04T04:08:39.470Z,64.57
2022-12-04T04:11:14.171Z,64.44
2022-12-04T04:14:12.563Z,64.47
2022-12-04T04:17:02.928Z,64.81
2022-12-04T04:19:50.718Z,66.53
2022-12-04T04:22:37.727Z,66.46
2022-12-04T04:25:10.255Z,66.83
2022-12-04T04:27:37.074Z,66.96
2022-12-04T04:30:05.280Z,67.24
2022-12-04T04:32:44.110Z,67.44
2022-12-04T04:35:16.955Z,67.36
2022-12-04T04:38:05.973Z,67.97
2022-12-04T04:40:44.490Z,68.00
2022-12-04T04:43:36.127Z,68.14
2022-12-04T04:46:10.307Z,68.53
2022-12-04T04:48:41.690Z,68.82
2022-12-04T04:51:12.027Z,68.42
2022-12-04T04:54:04.910Z,69.55
2022-12-04T04:56:31.967Z,69.06
2022-12-04T04:58:58.650Z,68.91
2022-12-04T05:01:28.852Z,68.85
2022-12-04T05:03:55.894Z,69.40
2022-12-04T05:06:22.573Z,68.99
2022-12-04T05:08:49.478Z,68.78
2022-12-04T05:11:18.775Z,68.40
2022-12-04T05:13:45.522Z,68.45
2022-12-04T05:16:15.310Z,68.24
2022-12-04T05:19:05.709Z,68.23
2022-12-04T05:21:33.184Z,68.62
2022-12-04T05:24:00.239Z,68.22
2022-12-04T05:26:27.043Z,68.21
2022-12-04T05:28:53.960Z,68.08
2022-12-04T05:31:20.729Z,68.05
2022-12-04T05:33:47.425Z,67.95
2022-12-04T05:36:14.266Z,68.30
2022-12-04T05:38:41.235Z,68.81
2022-12-04T05:41:08.305Z,68.94
2022-12-04T05:43:35.900Z,69.20
2022-12-04T05:46:04.668Z,69.39
2022-12-04T05:48:32.125Z,69.53
2022-12-04T05:50:58.951Z,69.45
2022-12-04T05:53:25.668Z,69.34
2022-12-04T05:56:00.665Z,69.40
2022-12-04T05:58:28.192Z,69.43
2022-12-04T06:00:55.492Z,69.65
2022-12-04T06:03:22.852Z,71.00
2022-12-04T06:05:49.649Z,72.20
2022-12-04T06:08:16.483Z,72.73
2022-12-04T06:10:43.413Z,72.96
2022-12-04T06:13:10.164Z,73.12
2022-12-04T06:15:40.732Z,73.39
2022-12-04T06:18:07.954Z,73.96
2022-12-04T06:20:35.237Z,73.96
2022-12-04T06:23:02.260Z,74.29
2022-12-04T06:25:29.136Z,74.16
2022-12-04T06:27:55.926Z,74.46
2022-12-04T06:30:23.102Z,74.61
2022-12-04T06:32:49.919Z,74.82
2022-12-04T06:35:16.774Z,74.96
2022-12-04T06:37:43.494Z,74.89
2022-12-04T06:40:10.775Z,74.85
2022-12-04T06:42:37.848Z,74.84
2022-12-04T06:45:05.435Z,74.94
2022-12-04T06:47:34.185Z,74.84
2022-12-04T06:50:00.887Z,74.98
2022-12-04T06:52:27.636Z,75.03
2022-12-04T06:54:54.481Z,74.94
2022-12-04T06:57:21.247Z,75.28
2022-12-04T06:59:47.944Z,75.33
2022-12-04T07:02:14.840Z,75.27
2022-12-04T07:04:41.644Z,75.16
2022-12-04T07:07:10.049Z,75.36
2022-12-04T07:09:37.167Z,75.36
2022-12-04T07:12:04.069Z,75.46
2022-12-04T07:14:30.915Z,75.51
2022-12-04T07:16:58.746Z,75.44
2022-12-04T07:19:25.537Z,75.56
2022-12-04T07:21:52.404Z,75.54
2022-12-04T07:24:19.296Z,75.57
2022-12-04T07:26:46.881Z,75.87
2022-12-04T07:29:13.937Z,75.82
2022-12-04T07:31:41.058Z,75.80
2022-12-04T07:34:08.051Z,75.54
2022-12-04T07:36:34.774Z,76.02
2022-12-04T07:39:01.571Z,76.02
2022-12-04T07:41:28.286Z,76.31
2022-12-04T07:43:55.137Z,76.37
2022-12-04T07:46:24.796Z,76.32
2022-12-04T07:48:51.612Z,76.61
2022-12-04T07:51:24.043Z,76.67
2022-12-04T07:53:53.417Z,76.77
2022-12-04T07:56:20.898Z,76.92
2022-12-04T07:58:48.036Z,76.92
2022-12-04T08:01:16.310Z,77.05
2022-12-04T08:03:48.018Z,77.29
2022-12-04T08:06:17.455Z,77.06
2022-12-04T08:08:44.560Z,77.18
2022-12-04T08:11:14.171Z,77.10
2022-12-04T08:13:41.096Z,76.79
2022-12-04T08:16:11.111Z,76.93
2022-12-04T08:18:38.711Z,76.94
2022-12-04T08:21:12.064Z,76.91
2022-12-04T08:23:40.360Z,77.07
2022-12-04T08:26:08.057Z,77.07
2022-12-04T08:28:35.721Z,77.20
2022-12-04T08:31:07.645Z,77.07
2022-12-04T08:33:34.737Z,76.99
2022-12-04T08:36:02.265Z,77.09
2022-12-04T08:38:30.091Z,76.81
2022-12-04T08:41:03.826Z,76.93
2022-12-04T08:43:30.757Z,76.72
2022-12-04T08:46:02.021Z,76.80
2022-12-04T08:48:29.750Z,76.72
2022-12-04T08:50:56.480Z,76.50
2022-12-04T08:53:24.252Z,76.68
2022-12-04T08:55:52.075Z,76.44
2022-12-04T08:58:20.232Z,76.37
2022-12-04T09:00:47.781Z,76.65
2022-12-04T09:03:19.822Z,76.53
2022-12-04T09:05:46.911Z,77.63
2022-12-04T09:08:15.231Z,77.01
2022-12-04T09:10:42.586Z,76.03
2022-12-04T09:13:09.454Z,75.33
2022-12-04T09:15:40.200Z,74.46
2022-12-04T09:18:08.032Z,74.60
2022-12-04T09:20:34.973Z,73.78
2022-12-04T09:23:04.390Z,73.75
2022-12-04T09:25:32.551Z,73.43
2022-12-04T09:27:59.315Z,72.91
2022-12-04T09:30:26.074Z,73.11
2022-12-04T09:32:52.992Z,73.22
2022-12-04T09:35:19.707Z,73.19
2022-12-04T09:37:46.434Z,71.53
2022-12-04T09:40:38.013Z,71.12
2022-12-04T09:43:54.279Z,71.04
2022-12-04T09:46:35.699Z,73.28
2022-12-04T09:49:10.515Z,72.02
2022-12-04T09:51:40.862Z,71.23
2022-12-04T09:54:17.355Z,70.12
2022-12-04T09:56:51.140Z,70.07
2022-12-04T09:59:23.528Z,71.83
2022-12-04T10:02:18.681Z,76.38
2022-12-04T10:04:45.514Z,78.38
2022-12-04T10:07:22.807Z,77.95
2022-12-04T10:09:59.622Z,78.34
2022-12-04T10:12:52.391Z,74.37
2022-12-04T10:15:50.291Z,66.78
2022-12-04T10:18:52.804Z,68.81
2022-12-04T10:21:28.385Z,69.13
2022-12-04T10:24:11.609Z,71.44
2022-12-04T10:26:44.668Z,65.61
2022-12-04T10:29:24.571Z,65.69
2022-12-04T10:31:55.140Z,65.52
2022-12-04T10:34:26.631Z,66.00
2022-12-04T10:36:55.872Z,68.16
2022-12-04T10:39:35.181Z,69.91
2022-12-04T10:42:38.134Z,67.42
2022-12-04T10:45:06.538Z,67.82
2022-12-04T10:47:35.482Z,70.45
2022-12-04T10:50:16.322Z,66.28
2022-12-04T10:52:43.192Z,69.59
2022-12-04T10:55:11.274Z,73.48
2022-12-04T10:57:46.906Z,66.66
2022-12-04T11:00:30.355Z,68.91
2022-12-04T11:03:01.392Z,65.94
2022-12-04T11:05:30.450Z,68.06
2022-12-04T11:07:58.837Z,70.16
2022-12-04T11:10:44.216Z,68.47
2022-12-04T11:13:10.843Z,69.76
2022-12-04T11:16:04.470Z,68.34
2022-12-04T11:18:34.111Z,65.53
2022-12-04T11:21:02.030Z,67.18
2022-12-04T11:23:46.621Z,69.67
2022-12-04T11:26:14.177Z,69.58
2022-12-04T11:28:54.399Z,67.18
2022-12-04T11:31:23.216Z,71.38
2022-12-04T11:33:52.468Z,71.44
2022-12-04T11:36:32.579Z,72.11
2022-12-04T11:39:04.964Z,71.65
2022-12-04T11:41:33.330Z,70.84
2022-12-04T11:44:01.070Z,71.17
2022-12-04T11:46:34.162Z,69.70
2022-12-04T11:49:03.495Z,71.76
2022-12-04T11:51:58.597Z,72.07
2022-12-04T11:54:54.345Z,73.12
2022-12-04T11:57:44.705Z,73.63
2022-12-04T12:00:13.864Z,74.13
2022-12-04T12:02:51.636Z,74.47
2022-12-04T12:05:33.891Z,75.33
2022-12-04T12:08:17.105Z,76.19
2022-12-04T12:10:59.038Z,76.88
2022-12-04T12:13:28.903Z,77.07
2022-12-04T12:16:07.996Z,77.31
2022-12-04T12:19:14.040Z,77.80
2022-12-04T12:21:46.632Z,78.07
2022-12-04T12:24:21.941Z,78.38
2022-12-04T12:27:20.936Z,79.10
2022-12-04T12:29:57.755Z,79.43
2022-12-04T12:32:37.334Z,79.55
2022-12-04T12:35:13.544Z,80.08
2022-12-04T12:37:46.684Z,80.50
2022-12-04T12:40:28.608Z,81.07
2022-12-04T12:43:05.941Z,81.58
2022-12-04T12:45:55.592Z,82.27
2022-12-04T12:48:47.092Z,82.66
2022-12-04T12:51:30.849Z,82.97
2022-12-04T12:54:09.673Z,83.06
2022-12-04T12:59:28.796Z,84.48
2022-12-04T13:02:02.386Z,84.00
2022-12-04T13:04:40.620Z,83.31
2022-12-04T13:07:20.804Z,84.54
2022-12-04T13:10:02.858Z,85.30
2022-12-04T13:12:33.917Z,84.35
2022-12-04T13:15:00.871Z,82.12
2022-12-04T13:17:35.340Z,80.94
2022-12-04T13:20:10.200Z,81.10
2022-12-04T13:22:56.200Z,81.78
2022-12-04T13:25:46.886Z,81.44
2022-12-04T13:28:22.649Z,80.67
2022-12-04T13:30:55.918Z,80.44
2022-12-04T13:33:25.511Z,81.21
2022-12-04T13:36:36.941Z,80.90
2022-12-04T13:39:31.012Z,80.70
2022-12-04T13:42:06.204Z,81.08
2022-12-04T13:44:35.553Z,81.22
2022-12-04T13:47:08.869Z,81.45
2022-12-04T13:49:38.519Z,81.60
2022-12-04T13:52:20.108Z,81.96
2022-12-04T13:55:00.223Z,82.52
2022-12-04T13:57:28.356Z,83.83
2022-12-04T14:00:06.625Z,83.01
2022-12-04T14:02:36.063Z,82.63
2022-12-04T14:05:06.821Z,82.49
2022-12-04T14:07:39.602Z,81.62
2022-12-04T14:10:07.893Z,81.83
2022-12-04T14:12:41.091Z,82.08
2022-12-04T14:15:21.008Z,82.08
2022-12-04T14:17:59.028Z,82.61
2022-12-04T14:20:28.882Z,82.58
2022-12-04T14:23:06.520Z,82.87
2022-12-04T14:25:39.110Z,82.75
2022-12-04T14:28:41.901Z,82.83
2022-12-04T14:31:08.851Z,83.11
2022-12-04T14:33:43.838Z,81.87
2022-12-04T14:36:19.236Z,81.68
2022-12-04T14:38:49.319Z,81.20
2022-12-04T14:41:23.787Z,82.75
2022-12-04T14:43:50.991Z,82.98
2022-12-04T14:46:32.413Z,82.26
2022-12-04T14:49:13.947Z,82.62
2022-12-04T14:51:46.290Z,82.31
2022-12-04T14:54:31.800Z,82.98
2022-12-04T14:57:17.396Z,82.96
2022-12-04T14:59:53.886Z,82.75
2022-12-04T15:02:34.539Z,82.77
2022-12-04T15:05:02.737Z,82.66
2022-12-04T15:07:32.153Z,82.43
2022-12-04T15:10:20.357Z,82.18
2022-12-04T15:12:49.683Z,82.69
2022-12-04T15:15:25.159Z,83.22
2022-12-04T15:18:14.993Z,83.43
2022-12-04T15:20:51.223Z,83.87
2022-12-04T15:23:19.640Z,84.32
2022-12-04T15:25:52.289Z,84.61
2022-12-04T15:28:28.944Z,84.51
2022-12-04T15:30:58.298Z,84.38
2022-12-04T15:33:32.628Z,84.47
2022-12-04T15:36:08.035Z,84.66
2022-12-04T15:38:36.382Z,85.24
2022-12-04T15:41:03.257Z,85.70
2022-12-04T15:43:41.221Z,86.00
2022-12-04T15:46:35.447Z,86.40
2022-12-04T15:49:18.474Z,86.47
2022-12-04T15:51:48.389Z,86.63
2022-12-04T15:54:21.712Z,86.83
2022-12-04T15:57:22.611Z,86.93
2022-12-04T15:59:51.927Z,87.21
2022-12-04T16:02:28.116Z,87.40
2022-12-04T16:04:55.090Z,87.30
2022-12-04T16:07:27.821Z,86.99
2022-12-04T16:10:03.722Z,87.18
2022-12-04T16:12:33.192Z,86.96
2022-12-04T16:14:59.968Z,87.04
2022-12-04T16:17:33.099Z,86.95
2022-12-04T16:20:01.287Z,86.96
2022-12-04T16:22:30.084Z,87.24
2022-12-04T16:24:57.371Z,87.22
2022-12-04T16:27:25.803Z,86.80
2022-12-04T16:29:53.753Z,86.35
2022-12-04T16:32:24.659Z,85.99
2022-12-04T16:34:51.366Z,85.91
2022-12-04T16:37:20.401Z,85.68
2022-12-04T16:39:47.541Z,85.41
2022-12-04T16:42:35.085Z,85.52
2022-12-04T16:45:02.001Z,85.85
2022-12-04T16:47:28.699Z,85.68
2022-12-04T16:49:55.382Z,85.70
2022-12-04T16:52:22.316Z,85.85
2022-12-04T16:54:49.262Z,86.22
2022-12-04T16:57:15.958Z,86.39
2022-12-04T16:59:42.827Z,86.55
2022-12-04T17:02:28.491Z,86.38
2022-12-04T17:05:03.588Z,86.55
2022-12-04T17:07:45.714Z,86.46
2022-12-04T17:10:15.738Z,86.71
2022-12-04T17:12:44.468Z,86.73
2022-12-04T17:15:17.970Z,86.88
2022-12-04T17:17:45.019Z,86.86
2022-12-04T17:20:14.389Z,86.99
2022-12-04T17:22:41.231Z,86.83
2022-12-04T17:25:09.109Z,86.18
2022-12-04T17:27:37.445Z,86.41
2022-12-04T17:30:09.016Z,86.17
2022-12-04T17:32:36.110Z,85.93
2022-12-04T17:35:04.938Z,85.76
2022-12-04T17:37:33.612Z,85.35
2022-12-04T17:40:00.481Z,85.50
2022-12-04T17:42:27.530Z,85.43
2022-12-04T17:44:54.469Z,85.49
2022-12-04T17:47:21.480Z,85.41
2022-12-04T17:49:48.167Z,85.40
2022-12-04T17:52:15.120Z,85.29
2022-12-04T17:54:42.079Z,85.42
2022-12-04T17:57:08.777Z,85.63
2022-12-04T17:59:35.531Z,85.70
2022-12-04T18:02:02.429Z,85.68
2022-12-04T18:04:29.163Z,85.83
2022-12-04T18:06:56.588Z,86.00
2022-12-04T18:09:23.579Z,86.18
2022-12-04T18:11:50.362Z,86.21
2022-12-04T18:14:19.472Z,86.33
2022-12-04T18:16:50.729Z,86.05
2022-12-04T18:19:17.516Z,86.20
2022-12-04T18:21:44.335Z,86.34
2022-12-04T18:24:11.446Z,86.29
2022-12-04T18:26:41.080Z,86.15
2022-12-04T18:29:08.970Z,86.03
2022-12-04T18:31:36.019Z,86.07
2022-12-04T18:34:05.492Z,85.97
2022-12-04T18:36:33.354Z,85.77
2022-12-04T18:39:04.704Z,86.24
2022-12-04T18:41:32.335Z,86.20
2022-12-04T18:43:59.403Z,85.91
2022-12-04T18:46:26.392Z,85.98
2022-12-04T18:48:54.583Z,85.53
2022-12-04T18:51:33.472Z,85.53
2022-12-04T18:54:03.718Z,85.78
2022-12-04T18:56:30.401Z,86.18
2022-12-04T18:59:03.122Z,86.15
2022-12-04T19:01:32.665Z,86.28
2022-12-04T19:04:03.232Z,86.35
2022-12-04T19:06:34.879Z,86.59
2022-12-04T19:09:04.977Z,86.56
2022-12-04T19:11:32.053Z,86.75
2022-12-04T19:13:59.714Z,86.70
2022-12-04T19:16:27.229Z,86.97
2022-12-04T19:18:54.007Z,86.59
2022-12-04T19:21:20.967Z,86.81
2022-12-04T19:23:58.215Z,86.17
2022-12-04T19:26:30.034Z,86.44
2022-12-04T19:28:57.585Z,86.40
2022-12-04T19:31:33.609Z,85.74
2022-12-04T19:34:01.179Z,86.14
2022-12-04T19:36:30.683Z,85.72
2022-12-04T19:38:58.429Z,85.50
2022-12-04T19:41:30.307Z,85.56
2022-12-04T19:44:01.199Z,85.39
2022-12-04T19:46:30.745Z,85.46
2022-12-04T19:49:03.864Z,85.26
2022-12-04T19:51:34.422Z,85.68
2022-12-04T19:54:01.587Z,85.42
2022-12-04T19:56:30.834Z,85.36
2022-12-04T19:59:00.285Z,85.13
2022-12-04T20:01:29.648Z,85.03
2022-12-04T20:03:58.150Z,84.80
2022-12-04T20:06:27.129Z,84.36
2022-12-04T20:09:05.131Z,83.79
2022-12-04T20:11:32.093Z,83.69
2022-12-04T20:14:01.255Z,83.09
2022-12-04T20:16:29.942Z,82.87
2022-12-04T20:18:57.643Z,82.80
2022-12-04T20:21:28.583Z,82.59
2022-12-04T20:23:55.416Z,82.38
2022-12-04T20:26:25.018Z,82.34
2022-12-04T20:28:52.755Z,82.09
2022-12-04T20:31:28.795Z,81.54
2022-12-04T20:34:00.731Z,81.85
2022-12-04T20:36:38.340Z,82.05
2022-12-04T20:39:06.225Z,82.14
2022-12-04T20:41:33.590Z,82.46
2022-12-04T20:44:03.499Z,82.38
2022-12-04T20:46:32.966Z,82.20
2022-12-04T20:49:01.392Z,82.20
2022-12-04T20:51:33.653Z,81.00
2022-12-04T20:54:01.319Z,81.43
2022-12-04T20:56:31.114Z,81.82
2022-12-04T20:58:59.416Z,81.60
2022-12-04T21:01:27.503Z,81.27
2022-12-04T21:03:54.595Z,81.20
2022-12-04T21:06:24.980Z,80.98
2022-12-04T21:08:53.969Z,80.93
2022-12-04T21:11:21.645Z,80.72
2022-12-04T21:14:06.788Z,80.05
2022-12-04T21:16:34.021Z,79.79
2022-12-04T21:19:01.396Z,79.65
2022-12-04T21:21:28.221Z,79.71
2022-12-04T21:23:54.911Z,79.84
2022-12-04T21:26:22.320Z,79.99
2022-12-04T21:28:49.218Z,79.83
2022-12-04T21:31:15.938Z,80.34
2022-12-04T21:33:42.648Z,79.83
2022-12-04T21:36:10.269Z,80.18
2022-12-04T21:38:39.079Z,79.39
2022-12-04T21:41:10.079Z,79.96
2022-12-04T21:43:37.319Z,80.07
2022-12-04T21:46:09.488Z,80.12
2022-12-04T21:48:37.296Z,79.63
2022-12-04T21:51:21.173Z,79.22
2022-12-04T21:53:57.944Z,79.31
2022-12-04T21:56:25.123Z,79.00
2022-12-04T21:58:52.650Z,78.64
2022-12-04T22:01:21.817Z,79.33
2022-12-04T22:03:49.330Z,79.16
2022-12-04T22:06:16.026Z,78.69
2022-12-04T22:08:42.988Z,78.21
2022-12-04T22:11:11.235Z,78.04
2022-12-04T22:13:38.989Z,77.46
2022-12-04T22:16:09.140Z,77.34
2022-12-04T22:18:36.135Z,77.71
2022-12-04T22:21:12.322Z,76.79
2022-12-04T22:23:39.406Z,77.59
2022-12-04T22:26:09.326Z,77.22
2022-12-04T22:28:36.625Z,77.94
2022-12-04T22:31:07.265Z,77.24
2022-12-04T22:33:34.752Z,77.08
2022-12-04T22:36:07.789Z,76.55
2022-12-04T22:38:47.194Z,77.63
2022-12-04T22:41:23.743Z,77.06
2022-12-04T22:43:50.500Z,77.38
2022-12-04T22:46:18.151Z,76.87
2022-12-04T22:48:45.792Z,76.96
2022-12-04T22:51:15.368Z,76.53
2022-12-04T22:53:54.181Z,75.65
2022-12-04T22:56:22.205Z,76.62
2022-12-04T22:58:49.469Z,76.58
2022-12-04T23:01:21.790Z,76.19
2022-12-04T23:03:49.511Z,76.75
2022-12-04T23:06:18.358Z,76.42
2022-12-04T23:08:46.092Z,76.42
2022-12-04T23:11:20.833Z,75.47
2022-12-04T23:14:00.308Z,74.76
2022-12-04T23:16:29.258Z,75.68
2022-12-04T23:18:56.477Z,75.58
2022-12-04T23:21:23.884Z,75.60
2022-12-04T23:23:53.664Z,75.98
2022-12-04T23:26:23.112Z,75.48
2022-12-04T23:28:50.079Z,75.08
2022-12-04T23:31:17.045Z,75.79
2022-12-04T23:33:43.804Z,75.78
2022-12-04T23:36:13.032Z,76.05
2022-12-04T23:38:41.473Z,76.26
2022-12-04T23:41:12.615Z,76.18
2022-12-04T23:43:39.935Z,76.51
2022-12-04T23:46:10.885Z,76.57
2022-12-04T23:48:39.492Z,76.54
2022-12-04T23:51:06.907Z,76.49
2022-12-04T23:53:33.649Z,76.17
2022-12-04T23:56:04.688Z,76.06
2022-12-04T23:58:32.767Z,76.60
